sensor_id;sensor_type;location;lat;lon;timestamp;pressure;altitude;pressure_sealevel;temperature;humidity
27425;BME280;15244;49.088;11.886;2023-01-26T00:02:20;96218.97;;;3.89;53.72
27425;BME280;15244;49.088;11.886;2023-01-26T00:07:22;96222.13;;;3.91;53.93
27425;BME280;15244;49.088;11.886;2023-01-26T00:12:23;96212.91;;;3.92;54.25
27425;BME280;15244;49.088;11.886;2023-01-26T00:17:25;96199.09;;;3.94;54.00
27425;BME280;15244;49.088;11.886;2023-01-26T00:22:29;96191.19;;;3.88;53.69
27425;BME280;15244;49.088;11.886;2023-01-26T00:27:36;96202.78;;;3.89;53.82
27425;BME280;15244;49.088;11.886;2023-01-26T00:32:44;96195.47;;;3.89;53.71
27425;BME280;15244;49.088;11.886;2023-01-26T00:37:50;96188.50;;;3.88;53.76
27425;BME280;15244;49.088;11.886;2023-01-26T00:42:51;96198.50;;;3.88;53.80
27425;BME280;15244;49.088;11.886;2023-01-26T00:47:58;96178.84;;;3.87;53.54
27425;BME280;15244;49.088;11.886;2023-01-26T00:53:00;96180.59;;;3.83;53.60
27425;BME280;15244;49.088;11.886;2023-01-26T00:58:09;96180.94;;;3.82;53.39
27425;BME280;15244;49.088;11.886;2023-01-26T01:03:10;96183.31;;;3.83;53.43
27425;BME280;15244;49.088;11.886;2023-01-26T01:08:12;96165.56;;;3.82;53.80
27425;BME280;15244;49.088;11.886;2023-01-26T01:13:23;96166.81;;;3.85;53.71
27425;BME280;15244;49.088;11.886;2023-01-26T01:18:24;96160.59;;;3.84;53.43
27425;BME280;15244;49.088;11.886;2023-01-26T01:23:27;96152.38;;;3.81;53.35
27425;BME280;15244;49.088;11.886;2023-01-26T01:28:32;96145.75;;;3.78;53.65
27425;BME280;15244;49.088;11.886;2023-01-26T01:33:40;96153.06;;;3.78;53.35
27425;BME280;15244;49.088;11.886;2023-01-26T01:38:46;96142.38;;;3.81;53.81
27425;BME280;15244;49.088;11.886;2023-01-26T01:44:11;96144.28;;;3.81;53.36
27425;BME280;15244;49.088;11.886;2023-01-26T01:49:20;96140.16;;;3.83;53.73
27425;BME280;15244;49.088;11.886;2023-01-26T01:54:31;96140.63;;;3.85;53.43
27425;BME280;15244;49.088;11.886;2023-01-26T01:59:36;96127.13;;;3.85;53.60
27425;BME280;15244;49.088;11.886;2023-01-26T02:04:37;96120.13;;;3.84;53.57
27425;BME280;15244;49.088;11.886;2023-01-26T02:09:40;96116.34;;;3.85;53.48
27425;BME280;15244;49.088;11.886;2023-01-26T02:15:14;96108.25;;;3.85;53.58
27425;BME280;15244;49.088;11.886;2023-01-26T02:20:28;96102.84;;;3.85;53.16
27425;BME280;15244;49.088;11.886;2023-01-26T02:30:47;96092.72;;;3.82;53.40
27425;BME280;15244;49.088;11.886;2023-01-26T02:35:52;96090.34;;;3.81;53.32
27425;BME280;15244;49.088;11.886;2023-01-26T02:41:11;96092.28;;;3.80;53.39
27425;BME280;15244;49.088;11.886;2023-01-26T02:46:37;96074.50;;;3.79;53.26
27425;BME280;15244;49.088;11.886;2023-01-26T02:51:39;96076.72;;;3.77;53.17
27425;BME280;15244;49.088;11.886;2023-01-26T02:56:41;96074.69;;;3.74;52.90
27425;BME280;15244;49.088;11.886;2023-01-26T03:01:49;96071.41;;;3.68;53.29
27425;BME280;15244;49.088;11.886;2023-01-26T03:06:51;96068.13;;;3.63;53.31
27425;BME280;15244;49.088;11.886;2023-01-26T03:11:55;96071.94;;;3.62;53.24
27425;BME280;15244;49.088;11.886;2023-01-26T03:16:57;96066.22;;;3.63;53.29
27425;BME280;15244;49.088;11.886;2023-01-26T03:22:01;96070.50;;;3.64;53.35
27425;BME280;15244;49.088;11.886;2023-01-26T03:27:23;96064.78;;;3.66;53.14
27425;BME280;15244;49.088;11.886;2023-01-26T03:32:35;96063.66;;;3.67;53.29
27425;BME280;15244;49.088;11.886;2023-01-26T03:37:43;96055.13;;;3.65;53.07
27425;BME280;15244;49.088;11.886;2023-01-26T03:43:06;96051.19;;;3.62;53.17
27425;BME280;15244;49.088;11.886;2023-01-26T03:48:27;96050.72;;;3.60;53.28
27425;BME280;15244;49.088;11.886;2023-01-26T03:53:49;96058.47;;;3.62;53.19
27425;BME280;15244;49.088;11.886;2023-01-26T03:59:11;96055.44;;;3.63;53.30
27425;BME280;15244;49.088;11.886;2023-01-26T04:04:18;96062.09;;;3.66;53.31
27425;BME280;15244;49.088;11.886;2023-01-26T04:09:42;96059.38;;;3.66;53.36
27425;BME280;15244;49.088;11.886;2023-01-26T04:14:48;96048.59;;;3.66;52.92
27425;BME280;15244;49.088;11.886;2023-01-26T04:20:09;96040.03;;;3.64;52.72
27425;BME280;15244;49.088;11.886;2023-01-26T04:25:30;96042.28;;;3.62;53.02
27425;BME280;15244;49.088;11.886;2023-01-26T04:30:32;96041.63;;;3.65;52.94
27425;BME280;15244;49.088;11.886;2023-01-26T04:35:36;96034.34;;;3.65;53.02
27425;BME280;15244;49.088;11.886;2023-01-26T04:40:40;96040.19;;;3.67;52.70
27425;BME280;15244;49.088;11.886;2023-01-26T04:46:02;96026.34;;;3.69;53.09
27425;BME280;15244;49.088;11.886;2023-01-26T04:51:11;96036.81;;;3.71;53.15
27425;BME280;15244;49.088;11.886;2023-01-26T04:56:27;96032.22;;;3.71;53.01
27425;BME280;15244;49.088;11.886;2023-01-26T05:01:30;96035.22;;;3.69;52.85
27425;BME280;15244;49.088;11.886;2023-01-26T05:06:35;96039.53;;;3.71;52.90
27425;BME280;15244;49.088;11.886;2023-01-26T05:11:39;96029.06;;;3.69;52.70
27425;BME280;15244;49.088;11.886;2023-01-26T05:17:01;96037.16;;;3.69;53.04
27425;BME280;15244;49.088;11.886;2023-01-26T05:22:21;96037.59;;;3.71;52.69
27425;BME280;15244;49.088;11.886;2023-01-26T05:27:43;96023.00;;;3.72;52.69
27425;BME280;15244;49.088;11.886;2023-01-26T05:32:52;96022.22;;;3.72;52.42
27425;BME280;15244;49.088;11.886;2023-01-26T05:37:57;96033.34;;;3.70;52.46
27425;BME280;15244;49.088;11.886;2023-01-26T05:43:07;96035.22;;;3.69;52.58
27425;BME280;15244;49.088;11.886;2023-01-26T05:48:18;96031.75;;;3.69;52.35
27425;BME280;15244;49.088;11.886;2023-01-26T05:53:22;96029.41;;;3.67;52.44
27425;BME280;15244;49.088;11.886;2023-01-26T05:58:27;96027.34;;;3.64;52.55
27425;BME280;15244;49.088;11.886;2023-01-26T06:03:34;96032.16;;;3.59;52.52
27425;BME280;15244;49.088;11.886;2023-01-26T06:08:41;96035.53;;;3.56;52.53
27425;BME280;15244;49.088;11.886;2023-01-26T06:14:20;96032.38;;;3.54;52.86
27425;BME280;15244;49.088;11.886;2023-01-26T06:19:23;96040.19;;;3.46;52.62
27425;BME280;15244;49.088;11.886;2023-01-26T06:24:30;96046.91;;;3.40;52.71
27425;BME280;15244;49.088;11.886;2023-01-26T06:29:32;96045.00;;;3.41;52.83
27425;BME280;15244;49.088;11.886;2023-01-26T06:34:37;96037.38;;;3.43;52.85
27425;BME280;15244;49.088;11.886;2023-01-26T06:39:42;96036.25;;;3.44;52.92
27425;BME280;15244;49.088;11.886;2023-01-26T06:44:45;96023.69;;;3.48;52.82
27425;BME280;15244;49.088;11.886;2023-01-26T06:49:47;96011.16;;;3.52;53.18
27425;BME280;15244;49.088;11.886;2023-01-26T06:54:49;96023.19;;;3.55;53.06
27425;BME280;15244;49.088;11.886;2023-01-26T07:00:15;96015.53;;;3.57;53.03
27425;BME280;15244;49.088;11.886;2023-01-26T07:05:38;96019.47;;;3.59;52.95
27425;BME280;15244;49.088;11.886;2023-01-26T07:10:42;96022.97;;;3.60;52.99
27425;BME280;15244;49.088;11.886;2023-01-26T07:15:43;96023.41;;;3.62;53.38
27425;BME280;15244;49.088;11.886;2023-01-26T07:20:47;96019.94;;;3.61;53.09
27425;BME280;15244;49.088;11.886;2023-01-26T07:25:48;96011.06;;;3.61;52.75
27425;BME280;15244;49.088;11.886;2023-01-26T07:30:58;96010.72;;;3.62;52.52
27425;BME280;15244;49.088;11.886;2023-01-26T07:36:04;96013.88;;;3.64;53.00
27425;BME280;15244;49.088;11.886;2023-01-26T07:41:10;96008.94;;;3.66;52.80
27425;BME280;15244;49.088;11.886;2023-01-26T07:46:15;96018.28;;;3.69;52.93
27425;BME280;15244;49.088;11.886;2023-01-26T07:51:20;96010.97;;;3.69;52.96
27425;BME280;15244;49.088;11.886;2023-01-26T07:56:26;96015.25;;;3.71;52.75
27425;BME280;15244;49.088;11.886;2023-01-26T08:01:27;96016.81;;;3.72;53.12
27425;BME280;15244;49.088;11.886;2023-01-26T08:06:29;96006.03;;;3.72;53.01
27425;BME280;15244;49.088;11.886;2023-01-26T08:11:31;96005.03;;;3.76;52.86
27425;BME280;15244;49.088;11.886;2023-01-26T08:16:41;96003.91;;;3.77;52.94
27425;BME280;15244;49.088;11.886;2023-01-26T08:21:42;96012.00;;;3.77;53.01
27425;BME280;15244;49.088;11.886;2023-01-26T08:26:46;96009.75;;;3.79;52.89
27425;BME280;15244;49.088;11.886;2023-01-26T08:31:55;96007.84;;;3.80;52.99
27425;BME280;15244;49.088;11.886;2023-01-26T08:36:56;96007.41;;;3.78;52.53
27425;BME280;15244;49.088;11.886;2023-01-26T08:42:01;96014.13;;;3.72;52.43
27425;BME280;15244;49.088;11.886;2023-01-26T08:47:02;96014.78;;;3.68;52.46
27425;BME280;15244;49.088;11.886;2023-01-26T08:52:09;96020.66;;;3.71;52.46
27425;BME280;15244;49.088;11.886;2023-01-26T08:57:11;96004.13;;;3.72;52.59
27425;BME280;15244;49.088;11.886;2023-01-26T09:02:12;96008.06;;;3.75;52.22
27425;BME280;15244;49.088;11.886;2023-01-26T09:07:19;96005.34;;;3.75;52.05
27425;BME280;15244;49.088;11.886;2023-01-26T09:12:21;96000.78;;;3.75;52.22
27425;BME280;15244;49.088;11.886;2023-01-26T09:17:25;96011.22;;;3.77;52.18
27425;BME280;15244;49.088;11.886;2023-01-26T09:22:26;96005.50;;;3.78;52.51
27425;BME280;15244;49.088;11.886;2023-01-26T09:27:30;95995.50;;;3.79;52.35
27425;BME280;15244;49.088;11.886;2023-01-26T09:32:35;96008.31;;;3.82;52.57
27425;BME280;15244;49.088;11.886;2023-01-26T09:37:38;96004.97;;;3.85;52.17
27425;BME280;15244;49.088;11.886;2023-01-26T09:48:21;96005.09;;;3.88;52.39
27425;BME280;15244;49.088;11.886;2023-01-26T09:53:51;96005.09;;;3.88;52.12
27425;BME280;15244;49.088;11.886;2023-01-26T09:59:31;96008.25;;;3.90;51.84
27425;BME280;15244;49.088;11.886;2023-01-26T10:04:41;96004.31;;;3.88;51.94
27425;BME280;15244;49.088;11.886;2023-01-26T10:09:50;95991.59;;;3.88;52.28
27425;BME280;15244;49.088;11.886;2023-01-26T10:15:02;95986.66;;;3.90;52.27
27425;BME280;15244;49.088;11.886;2023-01-26T10:20:17;95986.31;;;3.92;52.11
27425;BME280;15244;49.088;11.886;2023-01-26T10:25:37;95978.22;;;3.92;52.12
27425;BME280;15244;49.088;11.886;2023-01-26T10:30:40;95982.50;;;3.93;51.65
27425;BME280;15244;49.088;11.886;2023-01-26T10:35:45;95988.78;;;3.97;51.92
27425;BME280;15244;49.088;11.886;2023-01-26T10:40:46;95969.25;;;4.00;52.15
27425;BME280;15244;49.088;11.886;2023-01-26T10:45:48;95985.88;;;4.02;52.19
27425;BME280;15244;49.088;11.886;2023-01-26T10:50:52;95990.84;;;4.00;51.81
27425;BME280;15244;49.088;11.886;2023-01-26T10:56:14;95982.28;;;3.98;51.71
27425;BME280;15244;49.088;11.886;2023-01-26T11:01:20;95975.19;;;3.94;51.67
27425;BME280;15244;49.088;11.886;2023-01-26T11:06:27;95971.25;;;3.91;51.61
27425;BME280;15244;49.088;11.886;2023-01-26T11:11:29;95959.13;;;3.85;51.92
27425;BME280;15244;49.088;11.886;2023-01-26T11:16:33;95948.19;;;3.81;51.63
27425;BME280;15244;49.088;11.886;2023-01-26T11:21:45;95942.34;;;3.79;51.83
27425;BME280;15244;49.088;11.886;2023-01-26T11:43:24;95926.38;;;3.74;52.00
27425;BME280;15244;49.088;11.886;2023-01-26T11:59:26;95917.25;;;3.66;52.20
27425;BME280;15244;49.088;11.886;2023-01-26T12:04:32;95912.31;;;3.68;51.91
27425;BME280;15244;49.088;11.886;2023-01-26T12:09:46;95911.31;;;3.73;51.92
27425;BME280;15244;49.088;11.886;2023-01-26T12:25:46;95901.31;;;3.74;52.20
27425;BME280;15244;49.088;11.886;2023-01-26T12:36:19;95898.31;;;3.75;52.16
27425;BME280;15244;49.088;11.886;2023-01-26T12:42:00;95897.28;;;3.80;52.47
27425;BME280;15244;49.088;11.886;2023-01-26T12:47:14;95887.06;;;3.85;52.38
27425;BME280;15244;49.088;11.886;2023-01-26T12:58:09;95875.63;;;3.88;52.17
27425;BME280;15244;49.088;11.886;2023-01-26T13:03:28;95865.50;;;3.85;51.66
27425;BME280;15244;49.088;11.886;2023-01-26T13:08:47;95874.91;;;3.79;52.07
27425;BME280;15244;49.088;11.886;2023-01-26T13:13:52;95858.84;;;3.71;52.57
27425;BME280;15244;49.088;11.886;2023-01-26T13:19:01;95864.34;;;3.62;52.00
27425;BME280;15244;49.088;11.886;2023-01-26T13:29:28;95870.38;;;3.46;52.05
27425;BME280;15244;49.088;11.886;2023-01-26T13:34:38;95868.50;;;3.47;52.68
27425;BME280;15244;49.088;11.886;2023-01-26T13:39:47;95868.28;;;3.52;52.13
27425;BME280;15244;49.088;11.886;2023-01-26T13:45:16;95864.56;;;3.57;52.31
27425;BME280;15244;49.088;11.886;2023-01-26T13:50:31;95850.66;;;3.55;52.09
27425;BME280;15244;49.088;11.886;2023-01-26T13:55:33;95855.78;;;3.47;52.00
27425;BME280;15244;49.088;11.886;2023-01-26T14:00:40;95860.41;;;3.47;52.49
27425;BME280;15244;49.088;11.886;2023-01-26T14:05:50;95862.22;;;3.55;52.11
27425;BME280;15244;49.088;11.886;2023-01-26T14:10:54;95865.47;;;3.61;52.24
27425;BME280;15244;49.088;11.886;2023-01-26T14:15:58;95863.69;;;3.65;52.29
27425;BME280;15244;49.088;11.886;2023-01-26T14:21:26;95858.06;;;3.70;51.93
27425;BME280;15244;49.088;11.886;2023-01-26T14:26:32;95862.44;;;3.75;51.61
27425;BME280;15244;49.088;11.886;2023-01-26T14:31:35;95849.53;;;3.80;52.02
27425;BME280;15244;49.088;11.886;2023-01-26T14:36:38;95867.06;;;3.86;52.01
27425;BME280;15244;49.088;11.886;2023-01-26T14:41:40;95868.75;;;3.91;51.84
27425;BME280;15244;49.088;11.886;2023-01-26T14:46:49;95866.84;;;3.91;51.60
27425;BME280;15244;49.088;11.886;2023-01-26T14:51:58;95862.44;;;3.87;51.44
27425;BME280;15244;49.088;11.886;2023-01-26T14:57:04;95868.53;;;3.84;51.64
27425;BME280;15244;49.088;11.886;2023-01-26T15:02:23;95866.06;;;3.79;51.53
27425;BME280;15244;49.088;11.886;2023-01-26T15:07:54;95881.44;;;3.78;51.59
27425;BME280;15244;49.088;11.886;2023-01-26T15:18:18;95876.06;;;3.78;51.32
27425;BME280;15244;49.088;11.886;2023-01-26T15:23:31;95883.47;;;3.81;51.52
27425;BME280;15244;49.088;11.886;2023-01-26T15:28:35;95885.06;;;3.82;51.40
27425;BME280;15244;49.088;11.886;2023-01-26T15:33:45;95875.84;;;3.83;51.20
27425;BME280;15244;49.088;11.886;2023-01-26T15:38:47;95883.47;;;3.81;51.50
27425;BME280;15244;49.088;11.886;2023-01-26T15:43:53;95892.22;;;3.78;51.40
27425;BME280;15244;49.088;11.886;2023-01-26T15:48:55;95893.34;;;3.77;51.53
27425;BME280;15244;49.088;11.886;2023-01-26T15:53:59;95894.47;;;3.76;51.33
27425;BME280;15244;49.088;11.886;2023-01-26T15:59:03;95896.84;;;3.78;51.14
27425;BME280;15244;49.088;11.886;2023-01-26T16:04:11;95893.78;;;3.79;50.98
27425;BME280;15244;49.088;11.886;2023-01-26T16:09:17;95891.44;;;3.78;51.27
27425;BME280;15244;49.088;11.886;2023-01-26T16:14:26;95890.66;;;3.77;51.40
27425;BME280;15244;49.088;11.886;2023-01-26T16:19:27;95894.47;;;3.76;51.03
27425;BME280;15244;49.088;11.886;2023-01-26T16:24:36;95897.50;;;3.75;50.99
27425;BME280;15244;49.088;11.886;2023-01-26T16:29:40;95902.09;;;3.74;51.38
27425;BME280;15244;49.088;11.886;2023-01-26T16:34:44;95897.16;;;3.76;51.08
27425;BME280;15244;49.088;11.886;2023-01-26T16:39:45;95888.63;;;3.74;51.25
27425;BME280;15244;49.088;11.886;2023-01-26T16:44:47;95888.16;;;3.72;51.69
27425;BME280;15244;49.088;11.886;2023-01-26T16:49:49;95895.81;;;3.70;51.76
27425;BME280;15244;49.088;11.886;2023-01-26T16:54:53;95894.22;;;3.69;51.60
27425;BME280;15244;49.088;11.886;2023-01-26T16:59:59;95901.88;;;3.67;51.80
27425;BME280;15244;49.088;11.886;2023-01-26T17:05:00;95896.47;;;3.67;51.68
27425;BME280;15244;49.088;11.886;2023-01-26T17:10:02;95901.44;;;3.65;51.76
27425;BME280;15244;49.088;11.886;2023-01-26T17:15:05;95885.91;;;3.62;51.50
27425;BME280;15244;49.088;11.886;2023-01-26T17:20:10;95887.72;;;3.58;51.95
27425;BME280;15244;49.088;11.886;2023-01-26T17:25:20;95881.28;;;3.50;51.78
27425;BME280;15244;49.088;11.886;2023-01-26T17:30:23;95885.75;;;3.46;51.59
27425;BME280;15244;49.088;11.886;2023-01-26T17:35:25;95890.06;;;3.47;51.84
27425;BME280;15244;49.088;11.886;2023-01-26T17:40:29;95890.47;;;3.49;52.13
27425;BME280;15244;49.088;11.886;2023-01-26T17:45:34;95892.19;;;3.54;52.28
27425;BME280;15244;49.088;11.886;2023-01-26T17:50:51;95888.50;;;3.58;51.96
27425;BME280;15244;49.088;11.886;2023-01-26T17:55:54;95895.13;;;3.61;52.26
27425;BME280;15244;49.088;11.886;2023-01-26T18:00:56;95897.94;;;3.64;52.28
27425;BME280;15244;49.088;11.886;2023-01-26T18:06:00;95884.59;;;3.68;52.43
27425;BME280;15244;49.088;11.886;2023-01-26T18:11:04;95900.88;;;3.72;52.53
27425;BME280;15244;49.088;11.886;2023-01-26T18:16:10;95902.47;;;3.73;52.38
27425;BME280;15244;49.088;11.886;2023-01-26T18:21:19;95894.78;;;3.75;52.82
27425;BME280;15244;49.088;11.886;2023-01-26T18:26:27;95893.69;;;3.76;52.44
27425;BME280;15244;49.088;11.886;2023-01-26T18:31:34;95892.56;;;3.77;52.76
27425;BME280;15244;49.088;11.886;2023-01-26T18:36:36;95893.03;;;3.79;52.50
27425;BME280;15244;49.088;11.886;2023-01-26T18:41:38;95894.56;;;3.80;52.71
27425;BME280;15244;49.088;11.886;2023-01-26T18:46:42;95903.47;;;3.80;52.91
27425;BME280;15244;49.088;11.886;2023-01-26T18:51:44;95902.34;;;3.81;52.86
27425;BME280;15244;49.088;11.886;2023-01-26T18:56:49;95903.94;;;3.82;53.12
27425;BME280;15244;49.088;11.886;2023-01-26T19:01:56;95908.19;;;3.83;53.05
27425;BME280;15244;49.088;11.886;2023-01-26T19:07:00;95907.06;;;3.84;52.79
27425;BME280;15244;49.088;11.886;2023-01-26T19:12:04;95894.03;;;3.86;52.75
27425;BME280;15244;49.088;11.886;2023-01-26T19:17:11;95885.94;;;3.86;52.87
27425;BME280;15244;49.088;11.886;2023-01-26T19:22:14;95885.63;;;3.88;52.58
27425;BME280;15244;49.088;11.886;2023-01-26T19:27:15;95885.63;;;3.88;52.83
27425;BME280;15244;49.088;11.886;2023-01-26T19:32:22;95882.56;;;3.89;52.95
27425;BME280;15244;49.088;11.886;2023-01-26T19:37:28;95887.97;;;3.89;52.79
27425;BME280;15244;49.088;11.886;2023-01-26T19:42:30;95883.69;;;3.88;52.47
27425;BME280;15244;49.088;11.886;2023-01-26T19:47:31;95890.22;;;3.87;52.96
27425;BME280;15244;49.088;11.886;2023-01-26T19:52:33;95889.09;;;3.88;53.05
27425;BME280;15244;49.088;11.886;2023-01-26T19:57:35;95895.63;;;3.87;52.78
27425;BME280;15244;49.088;11.886;2023-01-26T20:02:45;95894.50;;;3.88;52.79
27425;BME280;15244;49.088;11.886;2023-01-26T20:07:46;95898.31;;;3.87;52.86
27425;BME280;15244;49.088;11.886;2023-01-26T20:12:48;95889.78;;;3.85;52.86
27425;BME280;15244;49.088;11.886;2023-01-26T20:17:50;95892.34;;;3.82;52.36
27425;BME280;15244;49.088;11.886;2023-01-26T20:22:51;95903.03;;;3.78;52.72
27425;BME280;15244;49.088;11.886;2023-01-26T20:27:53;95900.66;;;3.77;52.50
27425;BME280;15244;49.088;11.886;2023-01-26T20:32:55;95897.06;;;3.73;52.76
27425;BME280;15244;49.088;11.886;2023-01-26T20:38:01;95894.59;;;3.67;52.73
27425;BME280;15244;49.088;11.886;2023-01-26T20:43:03;95897.94;;;3.64;52.40
27425;BME280;15244;49.088;11.886;2023-01-26T20:48:05;95895.66;;;3.54;52.33
27425;BME280;15244;49.088;11.886;2023-01-26T20:53:09;95898.78;;;3.44;52.73
27425;BME280;15244;49.088;11.886;2023-01-26T20:58:14;95897.75;;;3.36;52.50
27425;BME280;15244;49.088;11.886;2023-01-26T21:03:21;95903.03;;;3.33;52.70
27425;BME280;15244;49.088;11.886;2023-01-26T21:08:22;95899.88;;;3.31;52.62
27425;BME280;15244;49.088;11.886;2023-01-26T21:13:24;95902.47;;;3.27;52.81
27425;BME280;15244;49.088;11.886;2023-01-26T21:18:30;95901.63;;;3.26;53.13
27425;BME280;15244;49.088;11.886;2023-01-26T21:23:34;95894.03;;;3.29;53.12
27425;BME280;15244;49.088;11.886;2023-01-26T21:28:37;95879.31;;;3.26;52.84
27425;BME280;15244;49.088;11.886;2023-01-26T21:33:43;95878.53;;;3.25;53.12
27425;BME280;15244;49.088;11.886;2023-01-26T21:38:46;95886.28;;;3.27;53.36
27425;BME280;15244;49.088;11.886;2023-01-26T21:43:56;95878.06;;;3.23;53.18
27425;BME280;15244;49.088;11.886;2023-01-26T21:49:00;95877.59;;;3.21;52.89
27425;BME280;15244;49.088;11.886;2023-01-26T21:54:04;95878.53;;;3.25;53.29
27425;BME280;15244;49.088;11.886;2023-01-26T21:59:14;95874.59;;;3.23;53.27
27425;BME280;15244;49.088;11.886;2023-01-26T22:04:20;95875.16;;;3.29;53.25
27425;BME280;15244;49.088;11.886;2023-01-26T22:09:27;95869.09;;;3.32;53.26
27425;BME280;15244;49.088;11.886;2023-01-26T22:14:30;95868.78;;;3.33;53.40
27425;BME280;15244;49.088;11.886;2023-01-26T22:19:31;95874.84;;;3.30;53.26
27425;BME280;15244;49.088;11.886;2023-01-26T22:24:33;95873.34;;;3.20;53.10
27425;BME280;15244;49.088;11.886;2023-01-26T22:29:35;95879.16;;;3.10;52.83
27425;BME280;15244;49.088;11.886;2023-01-26T22:34:38;95874.75;;;3.06;52.84
27425;BME280;15244;49.088;11.886;2023-01-26T22:39:40;95871.38;;;2.96;53.17
27425;BME280;15244;49.088;11.886;2023-01-26T22:44:47;95864.78;;;2.85;53.12
27425;BME280;15244;49.088;11.886;2023-01-26T22:49:53;95868.81;;;2.79;53.31
27425;BME280;15244;49.088;11.886;2023-01-26T22:55:02;95857.91;;;2.75;53.42
27425;BME280;15244;49.088;11.886;2023-01-26T23:00:06;95862.38;;;2.71;53.36
27425;BME280;15244;49.088;11.886;2023-01-26T23:05:11;95858.88;;;2.71;53.29
27425;BME280;15244;49.088;11.886;2023-01-26T23:10:13;95872.88;;;2.64;53.49
27425;BME280;15244;49.088;11.886;2023-01-26T23:15:15;95871.69;;;2.53;53.22
27425;BME280;15244;49.088;11.886;2023-01-26T23:20:18;95871.63;;;2.41;53.71
27425;BME280;15244;49.088;11.886;2023-01-26T23:25:20;95865.31;;;2.36;53.74
27425;BME280;15244;49.088;11.886;2023-01-26T23:30:40;95856.66;;;2.31;53.86
27425;BME280;15244;49.088;11.886;2023-01-26T23:35:42;95858.22;;;2.32;54.00
27425;BME280;15244;49.088;11.886;2023-01-26T23:40:47;95845.75;;;2.27;53.94
27425;BME280;15244;49.088;11.886;2023-01-26T23:45:52;95848.69;;;2.13;54.36
27425;BME280;15244;49.088;11.886;2023-01-26T23:50:58;95840.94;;;2.12;53.91
27425;BME280;15244;49.088;11.886;2023-01-26T23:56:06;95849.66;;;2.09;54.49
